Time;durP1;ratioP1;P1;durP2;ratioP2;P2;SDS_P1;SDS_P2;PMS_P1;PMS_P2;Temp;Humidity;BMP_temperature;BMP_pressure;BME280_temperature;BME280_humidity;BME280_pressure;Samples;Min_cycle;Max_cycle;Signal;HPM_P1;HPM_P2
2022/07/08 00:00:36;;;;;;;6.93;2.70;;;;;;;17.18;66.67;100153.25;4177254;28;21458;-65
2022/07/08 00:03:03;;;;;;;8.40;3.10;;;;;;;17.15;66.24;100153.63;4185441;28;20289;-64
2022/07/08 00:05:29;;;;;;;6.87;3.47;;;;;;;17.13;66.08;100154.88;4180583;28;20292;-62
2022/07/08 00:07:56;;;;;;;10.77;4.87;;;;;;;17.08;65.64;100152.75;4179135;28;20243;-62
2022/07/08 00:10:23;;;;;;;11.30;3.30;;;;;;;17.06;65.64;100154.81;4176756;28;20409;-63
2022/07/08 00:12:49;;;;;;;9.23;2.57;;;;;;;17.10;65.78;100156.09;4172207;28;20774;-66
2022/07/08 00:15:16;;;;;;;6.57;2.80;;;;;;;17.12;64.68;100148.66;4185011;28;20229;-62
2022/07/08 00:17:43;;;;;;;4.37;2.10;;;;;;;17.09;64.09;100154.41;4182868;28;21790;-63
2022/07/08 00:20:10;;;;;;;5.13;2.20;;;;;;;17.02;63.91;100157.06;4181866;28;20408;-62
2022/07/08 00:22:36;;;;;;;6.53;2.27;;;;;;;17.06;65.00;100152.13;4188625;28;20240;-64
2022/07/08 00:25:04;;;;;;;9.23;2.30;;;;;;;17.07;64.95;100156.47;4191304;28;20325;-61
2022/07/08 00:27:31;;;;;;;5.70;2.30;;;;;;;17.12;65.07;100154.03;4187171;28;20311;-64
2022/07/08 00:29:58;;;;;;;8.20;2.67;;;;;;;17.07;64.98;100156.47;4180387;28;20241;-63
2022/07/08 00:32:24;;;;;;;6.23;2.20;;;;;;;17.17;63.95;100158.84;4188025;28;20550;-64
2022/07/08 00:34:51;;;;;;;8.70;2.50;;;;;;;17.17;64.97;100150.75;4183122;28;20611;-61
2022/07/08 00:37:18;;;;;;;5.10;2.50;;;;;;;17.16;65.04;100157.16;4192226;28;20278;-62
2022/07/08 00:39:45;;;;;;;8.83;2.30;;;;;;;17.06;65.33;100154.81;4236071;28;21091;-65
2022/07/08 00:42:11;;;;;;;5.23;2.17;;;;;;;17.07;64.83;100149.25;4185463;28;21437;-63
2022/07/08 00:44:39;;;;;;;3.80;2.20;;;;;;;17.12;64.70;100150.53;4191418;28;21211;-64
2022/07/08 00:47:06;;;;;;;8.80;2.70;;;;;;;17.15;64.85;100153.63;4168131;28;20881;-63
2022/07/08 00:49:32;;;;;;;6.60;2.20;;;;;;;17.13;64.62;100155.69;4184293;28;20309;-62
2022/07/08 00:51:59;;;;;;;5.83;2.73;;;;;;;17.11;64.48;100152.34;4182831;28;21034;-64
2022/07/08 00:54:26;;;;;;;5.43;2.43;;;;;;;17.14;65.37;100162.75;4181414;28;20284;-61
2022/07/08 00:56:54;;;;;;;7.90;2.73;;;;;;;17.14;65.74;100160.06;4179175;28;21733;-65
2022/07/08 00:59:21;;;;;;;7.80;2.40;;;;;;;17.17;65.71;100156.97;4202411;28;21839;-64
2022/07/08 01:01:47;;;;;;;7.73;2.53;;;;;;;17.14;65.13;100151.13;4201761;28;20233;-66
2022/07/08 01:04:14;;;;;;;7.57;2.67;;;;;;;17.13;65.41;100155.69;4214783;28;21860;-66
2022/07/08 01:06:41;;;;;;;5.30;2.80;;;;;;;17.12;66.19;100154.03;4212259;28;21225;-63
2022/07/08 01:09:08;;;;;;;7.90;2.60;;;;;;;17.09;66.92;100154.41;4201272;28;20558;-66
2022/07/08 01:11:35;;;;;;;8.77;2.50;;;;;;;17.03;67.61;100149.81;4195166;28;20228;-62
2022/07/08 01:14:03;;;;;;;7.47;2.60;;;;;;;17.07;67.29;100149.25;4208004;28;23686;-65
2022/07/08 01:16:30;;;;;;;4.50;2.37;;;;;;;17.09;67.72;100151.72;4213659;28;21739;-63
2022/07/08 01:18:57;;;;;;;8.03;2.80;;;;;;;17.08;67.60;100147.38;4209262;28;20233;-62
2022/07/08 01:21:23;;;;;;;7.63;2.60;;;;;;;17.17;67.54;100154.28;4210426;28;20899;-64
2022/07/08 01:23:50;;;;;;;8.10;2.47;;;;;;;17.14;68.10;100152.00;4210440;28;20233;-65
2022/07/08 01:26:16;;;;;;;5.60;2.80;;;;;;;17.12;68.88;100150.53;4198954;28;21274;-62
2022/07/08 01:28:43;;;;;;;4.70;2.40;;;;;;;17.11;69.92;100148.84;4208725;28;20228;-62
2022/07/08 01:31:09;;;;;;;4.30;2.57;;;;;;;17.13;70.11;100150.31;4204193;28;20253;-66
2022/07/08 01:33:36;;;;;;;10.77;2.90;;;;;;;17.11;70.68;100152.34;4205738;28;20244;-65
2022/07/08 01:36:04;;;;;;;12.83;2.70;;;;;;;17.13;70.51;100150.31;4203748;28;20239;-65
2022/07/08 01:38:30;;;;;;;5.93;2.67;;;;;;;17.16;70.75;100159.84;4212492;28;20311;-67
2022/07/08 01:40:57;;;;;;;6.57;2.63;;;;;;;17.10;71.04;100156.09;4211425;28;20236;-62
2022/07/08 01:43:24;;;;;;;5.03;2.27;;;;;;;17.12;71.02;100163.97;4207073;28;21162;-60
2022/07/08 01:45:51;;;;;;;5.50;2.10;;;;;;;17.14;70.88;100167.25;4206983;28;20240;-62
2022/07/08 01:48:18;;;;;;;9.47;2.60;;;;;;;17.18;69.96;100166.69;4210052;28;23343;-65
2022/07/08 01:50:44;;;;;;;5.00;2.47;;;;;;;17.20;70.37;100164.63;4205681;28;21789;-66
2022/07/08 01:53:12;;;;;;;6.73;2.40;;;;;;;17.21;70.28;100165.50;4207435;28;20495;-63
2022/07/08 01:55:39;;;;;;;10.13;2.53;;;;;;;17.18;70.92;100160.47;4208785;28;20232;-62
2022/07/08 01:58:05;;;;;;;8.00;2.80;;;;;;;17.13;72.25;100158.38;4209093;28;20236;-65
2022/07/08 02:00:32;;;;;;;4.97;2.70;;;;;;;17.17;72.14;100159.66;4205974;28;20302;-61
2022/07/08 02:02:59;;;;;;;5.10;2.30;;;;;;;17.19;71.92;100160.28;4215445;28;20335;-62
2022/07/08 02:05:26;;;;;;;12.30;4.60;;;;;;;17.17;71.64;100162.34;4206758;28;20263;-63
2022/07/08 02:07:53;;;;;;;7.40;2.80;;;;;;;17.17;72.71;100167.72;4205444;28;20233;-61
2022/07/08 02:10:19;;;;;;;10.30;2.50;;;;;;;17.17;72.31;100167.72;4208438;28;20301;-63
2022/07/08 02:12:46;;;;;;;8.80;2.73;;;;;;;17.00;72.60;100166.34;4214030;28;20232;-65
2022/07/08 02:15:12;;;;;;;8.13;2.67;;;;;;;16.84;72.56;100162.06;4205995;28;20297;-63
2022/07/08 02:17:41;;;;;;;6.37;2.80;;;;;;;16.82;72.39;100170.31;4215686;28;20334;-65
2022/07/08 02:20:13;;;;;;;6.23;2.50;;;;;;;16.76;72.47;100171.03;4223403;28;22037;-63
2022/07/08 02:22:40;;;;;;;10.27;2.70;;;;;;;16.81;72.75;100174.03;4221337;28;20234;-61
2022/07/08 02:25:08;;;;;;;6.87;2.60;;;;;;;16.77;73.52;100178.09;4208880;28;20337;-63
2022/07/08 02:27:34;;;;;;;9.10;2.80;;;;;;;16.82;73.54;100170.31;4215436;28;20241;-62
2022/07/08 02:30:01;;;;;;;7.57;2.67;;;;;;;16.89;74.76;100178.44;4244189;28;20307;-63
2022/07/08 02:32:28;;;;;;;5.90;2.47;;;;;;;16.87;74.95;100177.81;4229155;28;20232;-62
2022/07/08 02:34:55;;;;;;;5.70;2.90;;;;;;;16.82;74.77;100174.84;4237252;28;21591;-63
2022/07/08 02:37:21;;;;;;;6.67;2.40;;;;;;;16.78;74.28;100179.75;4226226;28;21912;-62
2022/07/08 02:39:48;;;;;;;8.00;2.70;;;;;;;16.79;74.07;100186.00;4225987;28;21079;-66
2022/07/08 02:42:14;;;;;;;7.83;2.70;;;;;;;16.82;73.84;100181.06;4223210;28;20228;-65
2022/07/08 02:44:41;;;;;;;8.30;2.97;;;;;;;16.79;73.82;100192.19;4214531;28;20295;-64
2022/07/08 02:47:08;;;;;;;7.67;2.67;;;;;;;16.80;73.72;100188.47;4208540;28;20255;-63
2022/07/08 02:49:35;;;;;;;9.13;2.87;;;;;;;16.78;74.12;100187.81;4204450;28;22238;-62
2022/07/08 02:52:02;;;;;;;10.73;2.93;;;;;;;16.72;74.57;100182.38;4210161;28;22089;-63
2022/07/08 02:54:29;;;;;;;12.87;2.67;;;;;;;16.72;74.84;100185.91;4210475;28;22982;-63
2022/07/08 02:56:55;;;;;;;8.17;2.83;;;;;;;16.79;74.63;100192.19;4206234;28;20228;-65
2022/07/08 02:59:22;;;;;;;10.40;3.10;;;;;;;16.75;74.05;100190.88;4211060;28;20232;-62
2022/07/08 03:01:48;;;;;;;8.93;3.10;;;;;;;16.70;74.46;100192.50;4212494;28;20228;-61
2022/07/08 03:04:15;;;;;;;7.03;3.20;;;;;;;16.62;74.85;100191.59;4208080;28;20288;-62
2022/07/08 03:06:42;;;;;;;7.87;2.97;;;;;;;16.55;74.31;100189.84;4203328;28;20229;-60
2022/07/08 03:09:08;;;;;;;10.90;3.53;;;;;;;16.55;74.27;100195.22;4220356;28;20228;-62
2022/07/08 03:11:35;;;;;;;10.70;3.47;;;;;;;16.57;73.96;100198.53;4211223;28;20245;-65
2022/07/08 03:14:01;;;;;;;10.93;3.30;;;;;;;16.58;74.20;100194.84;4206821;28;20229;-61
2022/07/08 03:16:31;;;;;;;8.03;2.73;;;;;;;16.64;74.75;100205.63;4215991;28;21190;-62
2022/07/08 03:18:58;;;;;;;10.27;4.00;;;;;;;16.72;74.67;100204.72;4229203;28;20303;-63
2022/07/08 03:21:25;;;;;;;8.63;3.20;;;;;;;16.77;75.12;100204.97;4219979;28;20232;-63
2022/07/08 03:23:51;;;;;;;4.10;2.40;;;;;;;16.79;74.91;100213.69;4212821;28;21882;-63
2022/07/08 03:26:18;;;;;;;7.97;3.00;;;;;;;16.70;75.09;100225.56;4242874;28;23640;-63
2022/07/08 03:28:45;;;;;;;17.43;3.60;;;;;;;16.73;75.68;100219.78;4225083;28;20239;-62
2022/07/08 03:31:11;;;;;;;7.97;3.30;;;;;;;16.71;75.16;100226.38;4222611;28;23431;-62
2022/07/08 03:33:39;;;;;;;12.43;3.70;;;;;;;16.55;74.72;100222.06;4232891;28;20240;-62
2022/07/08 03:36:08;;;;;;;7.77;3.03;;;;;;;16.49;74.84;100223.66;4228573;28;20228;-64
2022/07/08 03:38:35;;;;;;;9.70;3.20;;;;;;;16.34;75.66;100225.53;4224603;28;20312;-63
2022/07/08 03:41:21;;;;;;;6.63;3.40;;;;;;;16.42;76.20;100228.97;4220091;28;20231;-63
2022/07/08 03:43:51;;;;;;;6.63;3.27;;;;;;;16.52;75.30;100230.50;4238181;28;20618;-62
2022/07/08 03:46:19;;;;;;;10.57;3.30;;;;;;;16.65;75.24;100238.75;4222465;28;21942;-62
2022/07/08 03:48:46;;;;;;;11.40;3.40;;;;;;;16.65;75.19;100233.38;4223186;28;20232;-62
2022/07/08 03:51:14;;;;;;;9.90;3.60;;;;;;;16.64;74.81;100242.44;4217747;28;20769;-64
2022/07/08 03:53:42;;;;;;;12.77;3.53;;;;;;;16.81;74.41;100235.84;4220419;28;20743;-62
2022/07/08 03:56:10;;;;;;;6.80;3.53;;;;;;;16.83;75.01;100247.25;4231976;28;20252;-63
2022/07/08 03:58:37;;;;;;;10.03;3.90;;;;;;;16.91;75.17;100242.75;4221772;28;23485;-61
2022/07/08 04:01:05;;;;;;;10.67;3.97;;;;;;;16.90;75.07;100238.41;4212820;28;20287;-64
2022/07/08 04:03:32;;;;;;;8.20;3.83;;;;;;;16.91;74.59;100237.41;4202071;28;22075;-63
2022/07/08 04:05:59;;;;;;;8.57;3.70;;;;;;;16.97;74.65;100237.44;4220608;28;20244;-63
2022/07/08 04:08:25;;;;;;;8.20;3.70;;;;;;;17.11;74.74;100237.56;4218897;28;21266;-62
2022/07/08 04:10:54;;;;;;;8.37;3.67;;;;;;;17.17;74.15;100245.69;4209406;28;20552;-62
2022/07/08 04:13:21;;;;;;;10.37;4.50;;;;;;;17.06;74.91;100240.84;4208153;28;20232;-63
2022/07/08 04:15:50;;;;;;;7.70;4.00;;;;;;;17.15;74.62;100234.31;4215640;28;21411;-63
2022/07/08 04:18:17;;;;;;;9.13;3.30;;;;;;;17.35;74.23;100239.88;4209259;28;23715;-65
2022/07/08 04:20:44;;;;;;;9.30;3.67;;;;;;;17.40;73.64;100247.38;4200595;28;20233;-62
2022/07/08 04:23:11;;;;;;;10.20;3.97;;;;;;;17.48;73.96;100248.03;4214723;28;20282;-62
2022/07/08 04:25:37;;;;;;;9.87;4.17;;;;;;;17.55;74.16;100249.94;4196572;28;20236;-63
2022/07/08 04:28:04;;;;;;;10.53;4.07;;;;;;;17.61;73.75;100247.31;4197736;28;20236;-63
2022/07/08 04:30:31;;;;;;;8.17;3.43;;;;;;;17.71;73.28;100253.19;4213064;28;20393;-63
2022/07/08 04:32:57;;;;;;;12.23;3.93;;;;;;;17.83;73.37;100252.66;4217184;28;20235;-62
2022/07/08 04:35:24;;;;;;;10.57;4.83;;;;;;;17.92;73.36;100260.41;4194987;28;21586;-62
2022/07/08 04:37:50;;;;;;;15.97;4.27;;;;;;;18.09;73.07;100258.22;4209126;28;21123;-66
2022/07/08 04:40:22;;;;;;;16.20;5.00;;;;;;;18.12;73.71;100260.53;4211986;28;22424;-62
2022/07/08 04:42:48;;;;;;;15.90;4.93;;;;;;;18.10;73.78;100262.59;4207979;28;20314;-64
2022/07/08 04:45:15;;;;;;;10.97;3.87;;;;;;;18.25;72.64;100272.41;4209259;28;20228;-64
2022/07/08 04:47:42;;;;;;;11.10;4.30;;;;;;;18.38;72.18;100269.78;4221304;28;21620;-64
2022/07/08 04:50:08;;;;;;;8.30;3.60;;;;;;;18.43;72.45;100270.00;4209860;28;20261;-62
2022/07/08 04:52:35;;;;;;;10.87;3.43;;;;;;;18.17;72.42;100272.53;4201106;28;21879;-62
2022/07/08 04:55:01;;;;;;;11.47;3.10;;;;;;;18.38;71.84;100272.47;4229356;28;21282;-65
2022/07/08 04:57:32;;;;;;;11.43;3.37;;;;;;;18.30;72.11;100273.44;4213301;28;20278;-64
2022/07/08 04:59:59;;;;;;;11.00;3.50;;;;;;;18.23;72.85;100271.75;4209038;28;20352;-63
2022/07/08 05:02:26;;;;;;;14.07;3.33;;;;;;;18.32;72.33;100274.09;4216483;28;20633;-65
2022/07/08 05:04:53;;;;;;;11.10;3.13;;;;;;;18.47;72.40;100270.41;4217952;28;20314;-61
2022/07/08 05:07:19;;;;;;;6.20;3.00;;;;;;;18.47;71.72;100281.19;4216839;28;20228;-63
2022/07/08 05:09:46;;;;;;;8.10;3.20;;;;;;;18.59;71.64;100281.44;4211105;28;20262;-64
2022/07/08 05:12:13;;;;;;;11.33;3.13;;;;;;;18.80;70.37;100284.06;4214485;28;21148;-63
2022/07/08 05:14:39;;;;;;;9.77;3.07;;;;;;;19.00;69.61;100285.97;4211564;28;20332;-65
2022/07/08 05:17:06;;;;;;;11.77;3.03;;;;;;;19.38;68.97;100300.56;4204523;28;20293;-62
2022/07/08 05:19:33;;;;;;;9.10;2.77;;;;;;;19.75;66.80;100301.03;4224535;28;20667;-64
2022/07/08 05:21:59;;;;;;;8.73;3.17;;;;;;;19.84;65.61;100301.66;4219581;28;20240;-64
2022/07/08 05:24:26;;;;;;;10.73;3.87;;;;;;;20.14;64.91;100296.63;4210835;28;21774;-63
2022/07/08 05:26:53;;;;;;;7.70;3.27;;;;;;;20.41;62.67;100297.34;4201283;28;20279;-63
2022/07/08 05:29:20;;;;;;;10.50;2.90;;;;;;;20.43;60.80;100297.16;4219290;28;21679;-63
2022/07/08 05:31:46;;;;;;;7.67;2.37;;;;;;;20.48;58.13;100297.34;4212592;28;20236;-63
2022/07/08 05:34:12;;;;;;;9.77;3.40;;;;;;;20.89;58.21;100309.69;4224860;28;21698;-64
2022/07/08 05:36:39;;;;;;;11.20;2.90;;;;;;;21.22;56.78;100305.97;4211068;28;20236;-62
2022/07/08 05:39:06;;;;;;;8.20;2.43;;;;;;;21.38;56.54;100305.44;4212121;28;20255;-61
2022/07/08 05:41:32;;;;;;;6.70;2.90;;;;;;;21.70;55.88;100313.53;4198301;28;22172;-61
2022/07/08 05:44:05;;;;;;;5.00;1.87;;;;;;;21.88;54.47;100310.88;4215069;28;20292;-61
2022/07/08 05:46:32;;;;;;;5.30;2.37;;;;;;;21.49;54.83;100304.75;4215278;28;25837;-61
2022/07/08 05:48:59;;;;;;;7.97;2.23;;;;;;;21.76;55.65;100312.66;4210198;28;20251;-62
2022/07/08 05:51:26;;;;;;;7.07;2.30;;;;;;;21.82;54.55;100317.22;4207906;28;20241;-62
2022/07/08 05:53:55;;;;;;;8.27;2.33;;;;;;;21.45;55.90;100308.94;4212083;28;21319;-61
2022/07/08 05:56:22;;;;;;;9.20;2.17;;;;;;;21.47;56.48;100314.97;4208075;28;20358;-61
2022/07/08 05:58:49;;;;;;;10.03;2.40;;;;;;;21.50;56.10;100322.66;4198655;28;21138;-62
2022/07/08 06:01:15;;;;;;;6.27;2.27;;;;;;;21.20;56.06;100319.69;4196796;28;20264;-61
2022/07/08 06:03:42;;;;;;;5.33;2.10;;;;;;;21.02;56.11;100323.13;4195633;28;22220;-61
2022/07/08 06:06:09;;;;;;;8.50;2.10;;;;;;;20.97;58.07;100319.41;4197210;28;22578;-60
2022/07/08 06:08:35;;;;;;;7.40;2.17;;;;;;;20.96;56.38;100329.41;4197594;28;22571;-61
2022/07/08 06:11:02;;;;;;;3.83;1.80;;;;;;;20.64;56.41;100328.50;4201719;28;20232;-62
2022/07/08 06:13:28;;;;;;;6.10;2.10;;;;;;;20.38;57.37;100324.81;4194765;28;20254;-61
2022/07/08 06:15:55;;;;;;;5.53;2.10;;;;;;;20.45;57.92;100335.63;4207016;28;20774;-61
2022/07/08 06:18:22;;;;;;;6.37;2.20;;;;;;;20.29;59.69;100328.78;4201927;28;20612;-61
2022/07/08 06:20:49;;;;;;;7.10;2.43;;;;;;;20.28;58.12;100326.31;4203879;28;22072;-62
2022/07/08 06:23:15;;;;;;;9.67;2.50;;;;;;;20.35;58.42;100335.25;4197583;28;21279;-62
2022/07/08 06:25:42;;;;;;;9.83;2.53;;;;;;;20.50;59.85;100330.41;4203769;28;20239;-60
2022/07/08 06:28:08;;;;;;;8.37;2.47;;;;;;;20.67;60.93;100336.19;4198060;28;21575;-62
2022/07/08 06:30:35;;;;;;;9.60;2.63;;;;;;;20.65;61.19;100328.31;4204419;28;20282;-61
2022/07/08 06:33:02;;;;;;;4.50;2.43;;;;;;;20.73;60.47;100337.22;4198277;28;21971;-63
2022/07/08 06:35:29;;;;;;;7.27;2.70;;;;;;;20.24;63.42;100339.41;4204203;28;20665;-61
2022/07/08 06:37:55;;;;;;;8.67;2.93;;;;;;;20.01;65.35;100337.16;4193774;28;20228;-60
2022/07/08 06:40:22;;;;;;;8.17;3.67;;;;;;;20.06;66.23;100340.03;4204417;28;20232;-61
2022/07/08 06:42:49;;;;;;;10.70;3.37;;;;;;;20.24;65.48;100348.34;4206319;28;20293;-62
2022/07/08 06:45:15;;;;;;;15.63;3.70;;;;;;;20.44;65.24;100342.09;4194167;28;21678;-63
2022/07/08 06:47:42;;;;;;;8.77;3.40;;;;;;;20.56;65.04;100350.41;4201441;28;26137;-64
2022/07/08 06:50:09;;;;;;;8.10;3.40;;;;;;;20.42;66.07;100344.16;4217226;28;20406;-61
2022/07/08 06:52:36;;;;;;;6.17;3.50;;;;;;;20.68;64.28;100345.16;4195618;28;20235;-61
2022/07/08 06:55:03;;;;;;;12.17;3.03;;;;;;;20.87;61.74;100346.94;4207443;28;20287;-60
2022/07/08 06:57:30;;;;;;;6.23;2.60;;;;;;;21.30;58.56;100357.13;4201909;28;20366;-62
2022/07/08 06:59:57;;;;;;;8.83;3.10;;;;;;;21.32;59.20;100349.59;4213319;28;22301;-60
2022/07/08 07:02:43;;;;;;;7.00;3.17;;;;;;;21.74;60.22;100355.38;4194202;28;20235;-62
2022/07/08 07:05:10;;;;;;;13.60;3.73;;;;;;;22.56;57.56;100366.13;4209594;28;20237;-60
2022/07/08 07:07:36;;;;;;;6.27;3.57;;;;;;;22.55;56.48;100369.91;4212022;28;20330;-64
2022/07/08 07:10:03;;;;;;;8.27;3.40;;;;;;;22.52;56.90;100367.63;4204905;28;20233;-61
2022/07/08 07:12:30;;;;;;;9.60;3.70;;;;;;;24.04;52.24;100379.34;4196019;28;20235;-62
2022/07/08 07:14:56;;;;;;;7.33;3.70;;;;;;;25.67;48.32;100385.50;4200511;28;20274;-62
2022/07/08 07:17:23;;;;;;;10.03;3.60;;;;;;;27.62;42.91;100390.88;4201620;28;20241;-64
2022/07/08 07:19:50;;;;;;;8.87;3.20;;;;;;;28.35;40.55;100396.69;4197396;28;20237;-63
2022/07/08 07:22:23;;;;;;;8.97;3.67;;;;;;;28.53;38.79;100400.09;4204526;28;22461;-64
2022/07/08 07:24:50;;;;;;;8.90;3.33;;;;;;;28.53;37.65;100402.84;4204979;28;20561;-63
2022/07/08 07:27:17;;;;;;;7.10;3.13;;;;;;;28.29;38.68;100391.47;4196196;28;20484;-62
2022/07/08 07:29:43;;;;;;;5.73;2.70;;;;;;;28.13;39.84;100391.34;4206821;28;20240;-62
2022/07/08 07:32:10;;;;;;;7.50;3.23;;;;;;;26.97;38.76;100378.16;4209322;28;20245;-61
2022/07/08 07:34:36;;;;;;;5.67;3.00;;;;;;;26.39;39.77;100375.75;4199268;28;22196;-66
2022/07/08 07:37:03;;;;;;;3.87;2.73;;;;;;;25.14;43.48;100364.88;4194980;28;21104;-62
2022/07/08 07:39:30;;;;;;;10.57;2.80;;;;;;;24.77;45.81;100367.13;4209028;28;22082;-62
2022/07/08 07:41:56;;;;;;;6.03;2.77;;;;;;;24.50;47.11;100364.13;4207977;28;20236;-62
2022/07/08 07:44:23;;;;;;;6.13;3.43;;;;;;;24.55;46.52;100370.50;4183723;28;20237;-62
2022/07/08 07:46:49;;;;;;;10.97;3.03;;;;;;;24.54;47.99;100359.88;4202268;28;21093;-61
2022/07/08 07:49:16;;;;;;;13.77;7.17;;;;;;;24.88;47.19;100366.28;4209193;28;20332;-61
2022/07/08 07:51:42;;;;;;;10.60;3.37;;;;;;;25.61;45.42;100364.66;4197312;28;20236;-61
2022/07/08 07:54:09;;;;;;;7.17;2.80;;;;;;;25.87;44.81;100365.13;4201110;28;20259;-67
2022/07/08 07:56:35;;;;;;;8.37;3.50;;;;;;;25.22;45.35;100361.81;4205421;28;20322;-62
2022/07/08 07:59:03;;;;;;;5.80;3.00;;;;;;;25.45;44.62;100368.19;4202793;28;20350;-60
2022/07/08 08:01:29;;;;;;;5.27;2.80;;;;;;;25.30;44.79;100362.50;4193321;28;20296;-61
2022/07/08 08:03:56;;;;;;;4.87;3.17;;;;;;;24.78;47.47;100361.47;4226956;28;20339;-61
2022/07/08 08:06:23;;;;;;;9.10;2.90;;;;;;;24.50;47.49;100355.97;4197555;28;20609;-62
2022/07/08 08:08:49;;;;;;;3.80;2.40;;;;;;;25.13;43.38;100360.50;4204741;28;21952;-63
2022/07/08 08:11:16;;;;;;;6.63;3.30;;;;;;;25.05;44.12;100355.44;4197954;28;20317;-61
2022/07/08 08:13:43;;;;;;;10.60;4.13;;;;;;;24.75;45.85;100363.84;4196764;28;20303;-61
2022/07/08 08:16:09;;;;;;;7.40;3.50;;;;;;;23.52;48.92;100350.88;4197658;28;20232;-61
2022/07/08 08:18:39;;;;;;;5.67;3.60;;;;;;;23.16;50.01;100349.94;4182848;28;21549;-60
2022/07/08 08:21:05;;;;;;;7.67;3.80;;;;;;;22.61;52.52;100346.44;4193152;28;20841;-61
2022/07/08 08:23:32;;;;;;;9.70;4.30;;;;;;;22.30;54.42;100340.94;4194654;28;20657;-61
2022/07/08 08:25:59;;;;;;;8.20;4.37;;;;;;;21.83;57.00;100337.81;4188372;28;20308;-63
2022/07/08 08:28:25;;;;;;;7.00;3.87;;;;;;;21.89;56.72;100331.53;4191919;28;20322;-46
2022/07/08 08:30:52;;;;;;;9.17;4.07;;;;;;;22.08;57.18;100336.97;4202489;28;20228;-50
2022/07/08 08:33:19;;;;;;;5.33;3.90;;;;;;;21.97;60.39;100337.72;4192190;28;20244;-59
2022/07/08 08:35:45;;;;;;;6.70;3.97;;;;;;;22.17;59.69;100335.59;4195398;28;20243;-64
2022/07/08 08:38:11;;;;;;;8.60;4.53;;;;;;;22.30;60.25;100335.50;4213243;28;20248;-62
2022/07/08 08:40:41;;;;;;;5.67;4.60;;;;;;;22.30;57.50;100329.28;4195375;28;22361;-60
2022/07/08 08:43:08;;;;;;;7.30;4.53;;;;;;;22.25;57.81;100324.53;4191389;28;21531;-63
2022/07/08 08:45:42;;;;;;;7.30;3.60;;;;;;;22.05;57.80;100326.56;4205147;28;25706;-43
2022/07/08 08:48:10;;;;;;;7.20;4.70;;;;;;;21.91;58.07;100324.00;4204966;28;20246;-45
2022/07/08 08:50:54;;;;;;;11.53;5.53;;;;;;;22.04;59.27;100331.16;4186821;28;20268;-45
2022/07/08 08:53:25;;;;;;;8.03;4.70;;;;;;;22.11;60.04;100325.69;4192681;28;20961;-44
2022/07/08 08:55:52;;;;;;;10.50;4.50;;;;;;;21.81;59.82;100326.38;4186483;28;20253;-41
2022/07/08 08:58:19;;;;;;;6.93;4.87;;;;;;;21.80;60.91;100329.31;4187746;28;20237;-44
2022/07/08 09:00:46;;;;;;;8.43;3.90;;;;;;;21.46;60.89;100326.84;4193519;28;22295;-46
2022/07/08 09:03:12;;;;;;;7.93;3.80;;;;;;;21.14;64.30;100320.59;4208456;28;20241;-45
2022/07/08 09:05:39;;;;;;;8.33;3.73;;;;;;;21.39;64.63;100327.91;4191685;28;22278;-43
2022/07/08 09:08:06;;;;;;;6.20;3.70;;;;;;;21.44;67.60;100331.66;4203406;28;20298;-44
2022/07/08 09:10:34;;;;;;;4.27;3.10;;;;;;;21.42;67.06;100344.59;4208582;28;20228;-41
2022/07/08 09:13:06;;;;;;;5.43;3.33;;;;;;;21.01;69.39;100342.31;4208916;28;20296;-42
2022/07/08 09:15:41;;;;;;;6.30;3.43;;;;;;;20.55;72.93;100337.88;4200032;28;20244;-42
2022/07/08 09:18:10;;;;;;;9.47;4.00;;;;;;;20.35;75.85;100332.53;4212053;28;21585;-42
2022/07/08 09:20:50;;;;;;;5.43;3.20;;;;;;;20.08;75.63;100335.28;4213252;28;22021;-45
2022/07/08 09:23:19;;;;;;;5.03;2.50;;;;;;;19.89;76.49;100339.66;4196465;28;21719;-42
2022/07/08 09:26:07;;;;;;;6.50;2.60;;;;;;;19.80;78.01;100339.03;4188113;28;20236;-43
2022/07/08 09:28:37;;;;;;;7.97;2.80;;;;;;;20.06;75.36;100328.41;4200348;28;20286;-41
2022/07/08 09:31:06;;;;;;;4.07;2.53;;;;;;;20.15;75.80;100322.56;4192080;28;20335;-43
2022/07/08 09:33:33;;;;;;;3.43;2.50;;;;;;;20.38;74.45;100329.41;4200831;28;22204;-42
2022/07/08 09:36:02;;;;;;;3.57;2.63;;;;;;;20.63;71.78;100324.16;4186322;28;20304;-44
2022/07/08 09:38:30;;;;;;;3.53;2.53;;;;;;;20.52;72.65;100319.38;4206263;28;21716;-62
2022/07/08 09:40:59;;;;;;;3.03;2.40;;;;;;;20.41;72.78;100320.84;4208388;28;21098;-65
2022/07/08 09:43:26;;;;;;;5.23;2.43;;;;;;;20.28;73.84;100331.72;4214348;28;20622;-63
2022/07/08 09:45:53;;;;;;;3.43;2.17;;;;;;;20.47;71.25;100332.72;4214157;28;20318;-61
2022/07/08 09:48:23;;;;;;;3.00;2.10;;;;;;;20.55;70.85;100322.47;4199060;28;20556;-65
2022/07/08 09:50:50;;;;;;;6.73;2.47;;;;;;;20.39;71.14;100329.19;4207031;28;20245;-64
2022/07/08 09:53:29;;;;;;;2.60;1.90;;;;;;;20.78;68.69;100326.59;4208000;28;20242;-61
2022/07/08 09:55:58;;;;;;;5.07;2.07;;;;;;;21.05;67.68;100322.72;4212615;28;20234;-62
2022/07/08 09:58:27;;;;;;;3.03;1.90;;;;;;;21.50;66.31;100325.38;4200587;28;20245;-62
2022/07/08 10:00:56;;;;;;;2.93;2.23;;;;;;;21.48;67.55;100322.03;4205086;28;21209;-64
2022/07/08 10:03:23;;;;;;;2.77;2.07;;;;;;;21.54;68.01;100320.34;4200104;28;20246;-72
2022/07/08 10:05:50;;;;;;;3.37;2.10;;;;;;;21.64;67.75;100317.97;4221154;28;20693;-72
2022/07/08 10:08:18;;;;;;;3.80;2.10;;;;;;;21.57;68.84;100322.59;4207602;28;22094;-69
2022/07/08 10:10:48;;;;;;;2.37;2.00;;;;;;;21.56;66.35;100322.81;4223480;28;20236;-71
2022/07/08 10:13:18;;;;;;;3.13;2.00;;;;;;;21.50;67.04;100322.66;4192447;28;20236;-71
2022/07/08 10:15:45;;;;;;;2.67;2.07;;;;;;;21.33;67.51;100326.94;4204995;28;20295;-71
2022/07/08 10:18:20;;;;;;;3.77;2.07;;;;;;;21.24;67.79;100320.94;4195538;28;20351;-69
2022/07/08 10:20:49;;;;;;;3.50;2.20;;;;;;;20.90;70.81;100319.44;4184974;28;20326;-70
2022/07/08 10:23:38;;;;;;;3.33;1.90;;;;;;;20.85;71.31;100321.97;4209514;28;20236;-74
2022/07/08 10:26:06;;;;;;;2.20;2.00;;;;;;;20.95;72.26;100322.34;4202445;28;20233;-71
2022/07/08 10:28:38;;;;;;;6.80;2.40;;;;;;;20.90;72.56;100314.03;4195150;28;20235;-71
2022/07/08 10:31:24;;;;;;;4.23;2.73;;;;;;;21.08;72.71;100324.97;4170625;28;20241;-70
2022/07/08 10:33:59;;;;;;;3.27;1.93;;;;;;;20.87;70.06;100323.41;4247464;28;20368;-70
2022/07/08 10:36:26;;;;;;;3.50;1.67;;;;;;;20.76;70.04;100317.84;4193842;28;20233;-72
2022/07/08 10:38:55;;;;;;;5.30;2.10;;;;;;;20.68;71.02;100320.81;4202950;28;21570;-71
2022/07/08 10:41:29;;;;;;;5.03;2.30;;;;;;;20.35;73.57;100327.13;4196611;28;21211;-74
2022/07/08 10:44:02;;;;;;;7.67;2.20;;;;;;;19.96;76.23;100324.28;4199337;28;22188;-75
2022/07/08 10:46:29;;;;;;;4.23;2.40;;;;;;;19.79;77.23;100323.88;4196169;28;20237;-76
2022/07/08 10:48:58;;;;;;;4.00;2.43;;;;;;;19.64;79.15;100317.81;4195744;28;20228;-74
2022/07/08 10:51:24;;;;;;;5.10;3.10;;;;;;;19.56;80.24;100313.44;4206480;28;20685;-72
2022/07/08 10:54:09;;;;;;;5.00;2.87;;;;;;;19.51;81.37;100315.94;4213835;28;22455;-75
2022/07/08 10:56:54;;;;;;;5.10;3.07;;;;;;;19.41;81.35;100304.72;4203219;28;20237;-63
2022/07/08 10:59:31;;;;;;;5.10;3.63;;;;;;;19.41;81.70;100310.13;4227504;28;21900;-66
2022/07/08 11:02:12;;;;;;;4.77;3.60;;;;;;;19.60;83.25;100313.88;4199428;28;20240;-64
2022/07/08 11:04:40;;;;;;;8.37;4.30;;;;;;;19.78;81.70;100308.72;4233012;28;20241;-61
2022/07/08 11:07:20;;;;;;;11.97;4.20;;;;;;;20.00;82.27;100313.88;4228440;28;20815;-63
2022/07/08 11:09:49;;;;;;;9.13;3.90;;;;;;;20.23;80.36;100311.56;4225295;28;20388;-62
2022/07/08 11:12:21;;;;;;;6.67;3.60;;;;;;;20.38;78.03;100296.97;4218961;28;20294;-66
2022/07/08 11:14:49;;;;;;;6.40;3.67;;;;;;;20.33;77.18;100302.19;4202404;28;20236;-74
2022/07/08 11:17:27;;;;;;;7.90;4.17;;;;;;;20.38;77.31;100299.66;4201193;28;20245;-74
2022/07/08 11:19:54;;;;;;;8.23;4.17;;;;;;;20.51;77.96;100302.34;4223648;28;25130;-70
2022/07/08 11:22:22;;;;;;;5.20;4.00;;;;;;;20.71;77.11;100320.38;4193927;28;20348;-74
2022/07/08 11:24:53;;;;;;;6.83;4.37;;;;;;;20.85;75.46;100321.97;4237941;28;20258;-79
2022/07/08 11:27:24;;;;;;;5.10;3.70;;;;;;;20.97;77.29;100314.84;4224950;28;20242;-79